Flight Track Log - Related Links

Times and Time Zones

All times are in EDT time to prevent confusion due to time zone crossing. See the PDT4226 flight status page for this flight to view local times or setup timezone preferences in your user account.

Time Position Orientation Groundspeed Altitude Reporting Facility
EDT Latitude Longitude Course Direction KTS MPH feet Rate Location/Type
Mon 12:23:43 PM 39.8833 -75.2167 311° West 125 144 500  Level Philadelphia TRACON
Mon 12:24:25 PM 39.9000 -75.1833 57° Northeast 141 162 1,700 1,376 Climbing Philadelphia TRACON
Mon 12:25:32 PM 39.9333 -75.1333 49° Northeast 157 181 3,000 756 Climbing Philadelphia TRACON
Mon 12:26:00 PM 40.0608 -75.2985 303° West  Level Estimated
Mon 12:26:32 PM 39.9833 -75.1000 27° Northeast 225 259 3,300  Level Philadelphia TRACON
Mon 12:27:00 PM 40.1236 -75.3178 North  Level Estimated
Mon 12:27:32 PM 40.0167 -75.0500 49° Northeast 161 185 5,500  Level Philadelphia TRACON
Mon 12:28:00 PM 40.1865 -75.3372 North  Level Estimated
Mon 12:28:20 PM 40.0500 -75.0333 21° North 163 188 6,800  Level Philadelphia TRACON
Mon 12:29:00 PM 40.2493 -75.3565 311° West  Level Estimated
Mon 12:29:32 PM 40.0833 -75.1000 303° West 173 199 8,500  Level Philadelphia TRACON
Mon 12:30:26 PM 40.1000 -75.1500 294° West 195 224 9,100 316 Climbing Philadelphia TRACON
Mon 12:31:26 PM 40.1167 -75.2333 285° West 233 268 9,100  Level Philadelphia TRACON
Mon 12:32:38 PM 40.1406 -75.3189 290° West 253 291 9,100  Level New York Center
Mon 12:33:38 PM 40.1628 -75.3883 293° West 248 285 9,100  Level New York Center
Mon 12:34:38 PM 40.1928 -75.4717 295° West 238 274 9,100 350 Level New York Center
Mon 12:35:38 PM 40.2189 -75.5469 294° West 232 267 9,800 950 Climbing New York Center
Mon 12:36:38 PM 40.2461 -75.5978 305° West 207 238 11,000 1,000 Climbing New York Center
Mon 12:37:38 PM 40.2772 -75.6517 307° West 186 214 11,800 550 Climbing New York Center
Mon 12:38:38 PM 40.3119 -75.7167 305° West 192 221 12,100 150 Climbing New York Center
Mon 12:39:38 PM 40.3533 -75.7769 312° West 213 245 12,100  Level New York Center
Mon 12:40:38 PM 40.3983 -75.8428 312° West 228 262 12,100 550 Level New York Center
Mon 12:41:38 PM 40.4492 -75.8711 337° Northwest 224 258 13,200 1,000 Climbing New York Center
Mon 12:42:38 PM 40.5003 -75.8967 339° North 207 238 14,100 450 Climbing New York Center
Mon 12:43:38 PM 40.5572 -75.9311 335° Northwest 213 245 14,100  Level New York Center
Mon 12:44:38 PM 40.6242 -75.9689 337° Northwest 233 268 14,100  Level New York Center
Mon 12:45:38 PM 40.6789 -76.0031 335° Northwest 238 274 14,100  Level New York Center
Mon 12:46:38 PM 40.7481 -76.0414 337° Northwest 245 282 14,100  Level New York Center
Mon 12:47:38 PM 40.8139 -76.0628 346° North 245 282 14,100  Level New York Center
Mon 12:48:38 PM 40.8769 -76.0953 339° North 240 276 14,100  Level New York Center
Mon 12:49:38 PM 40.9386 -76.1164 346° North 246 283 14,100  Level New York Center
Mon 12:50:38 PM 41.0147 -76.1389 347° North 246 283 14,100  Level New York Center
Mon 12:51:38 PM 41.0742 -76.1603 345° North 246 283 14,100  Level New York Center
Mon 12:52:38 PM 41.1394 -76.1875 343° North 246 283 14,100  Level New York Center
Mon 12:53:38 PM 41.2181 -76.1992 354° North 246 283 14,100  Level New York Center
Mon 12:54:38 PM 41.2894 -76.1911 North 253 291 14,100  Level New York Center
Mon 12:55:38 PM 41.3600 -76.1942 358° North 253 291 14,100  Level New York Center
Mon 12:56:38 PM 41.4247 -76.1911 North 253 291 14,100  Level New York Center
Mon 12:57:38 PM 41.4961 -76.1828 North 253 291 14,100 -500 Level New York Center
Mon 12:58:38 PM 41.5794 -76.1814 North 259 298 13,100 -1,100 Descending New York Center
Mon 12:59:38 PM 41.6564 -76.1792 North 266 306 11,900 -1,150 Descending New York Center
Mon 01:00:38 PM 41.7314 -76.1825 358° North 271 312 10,800 -1,200 Descending New York Center
Mon 01:01:38 PM 41.7978 -76.1881 356° North 271 312 9,500 -1,350 Descending New York Center
Mon 01:02:38 PM 41.8728 -76.1883 360° North 271 312 8,100 -1,450 Descending New York Center
Mon 01:03:38 PM 41.9517 -76.1922 358° North 271 312 6,600 -1,450 Descending New York Center
Mon 01:04:38 PM 42.0244 -76.1925 360° North 266 306 5,200 -750 Descending New York Center
Mon 01:05:38 PM 42.0869 -76.1947 358° North 260 299 5,100 -350 Descending New York Center
Mon 01:06:38 PM 42.1472 -76.1969 358° North 237 273 4,500 -850 Descending New York Center
Mon 01:07:38 PM 42.2008 -76.2042 354° North 213 245 3,400 -550 Descending New York Center
Mon 01:08:38 PM 42.2528 -76.2086 356° North 192 221 3,400  Level New York Center
Mon 01:09:38 PM 42.2986 -76.2094 359° North 179 206 3,400  Level New York Center
Mon 01:10:38 PM 42.3258 -76.1556 56° Northeast 158 182 3,400  Level New York Center

Login

Don't have an account? Register now (free) for customized features, flight alerts, and more!